sensor_id;sensor_type;location;lat;lon;timestamp;temperature;humidity
56861;DHT22;42744;51.094;3.490;2023-02-15T00:00:34;1.10;99.90
56861;DHT22;42744;51.094;3.490;2023-02-15T00:03:00;1.10;99.90
56861;DHT22;42744;51.094;3.490;2023-02-15T00:05:26;1.10;99.90
56861;DHT22;42744;51.094;3.490;2023-02-15T00:07:52;1.10;99.90
56861;DHT22;42744;51.094;3.490;2023-02-15T00:10:18;1.00;99.90
56861;DHT22;42744;51.094;3.490;2023-02-15T00:12:44;1.00;99.90
56861;DHT22;42744;51.094;3.490;2023-02-15T00:15:10;0.90;99.90
56861;DHT22;42744;51.094;3.490;2023-02-15T00:17:38;0.90;99.90
56861;DHT22;42744;51.094;3.490;2023-02-15T00:20:05;0.80;99.90
56861;DHT22;42744;51.094;3.490;2023-02-15T00:22:31;0.80;99.90
56861;DHT22;42744;51.094;3.490;2023-02-15T00:24:57;0.80;99.90
56861;DHT22;42744;51.094;3.490;2023-02-15T00:27:23;0.80;99.90
56861;DHT22;42744;51.094;3.490;2023-02-15T00:29:49;0.80;99.90
56861;DHT22;42744;51.094;3.490;2023-02-15T00:32:15;0.80;99.90
56861;DHT22;42744;51.094;3.490;2023-02-15T00:34:41;0.70;99.90
56861;DHT22;42744;51.094;3.490;2023-02-15T00:37:07;0.70;99.90
56861;DHT22;42744;51.094;3.490;2023-02-15T00:39:33;0.70;99.90
56861;DHT22;42744;51.094;3.490;2023-02-15T00:41:59;0.60;99.90
56861;DHT22;42744;51.094;3.490;2023-02-15T00:44:25;0.60;99.90
56861;DHT22;42744;51.094;3.490;2023-02-15T00:46:51;0.60;99.90
56861;DHT22;42744;51.094;3.490;2023-02-15T00:49:19;0.60;99.90
56861;DHT22;42744;51.094;3.490;2023-02-15T00:51:45;0.60;99.90
56861;DHT22;42744;51.094;3.490;2023-02-15T00:54:11;0.70;99.90
56861;DHT22;42744;51.094;3.490;2023-02-15T00:56:37;0.60;99.90
56861;DHT22;42744;51.094;3.490;2023-02-15T00:59:03;0.60;99.90
56861;DHT22;42744;51.094;3.490;2023-02-15T01:01:29;0.60;99.90
56861;DHT22;42744;51.094;3.490;2023-02-15T01:03:55;0.60;99.90
56861;DHT22;42744;51.094;3.490;2023-02-15T01:06:21;0.70;99.90
56861;DHT22;42744;51.094;3.490;2023-02-15T01:08:48;0.60;99.90
56861;DHT22;42744;51.094;3.490;2023-02-15T01:11:17;0.60;99.90
56861;DHT22;42744;51.094;3.490;2023-02-15T01:13:49;0.60;99.90
56861;DHT22;42744;51.094;3.490;2023-02-15T01:16:15;0.60;99.90
56861;DHT22;42744;51.094;3.490;2023-02-15T01:18:42;0.60;99.90
56861;DHT22;42744;51.094;3.490;2023-02-15T01:21:13;0.50;99.90
56861;DHT22;42744;51.094;3.490;2023-02-15T01:23:40;0.50;99.90
56861;DHT22;42744;51.094;3.490;2023-02-15T01:26:08;0.50;99.90
56861;DHT22;42744;51.094;3.490;2023-02-15T01:28:35;0.40;99.90
56861;DHT22;42744;51.094;3.490;2023-02-15T01:31:09;0.40;99.90
56861;DHT22;42744;51.094;3.490;2023-02-15T01:33:37;0.40;99.90
56861;DHT22;42744;51.094;3.490;2023-02-15T01:36:04;0.40;99.90
56861;DHT22;42744;51.094;3.490;2023-02-15T01:38:31;0.40;99.90
56861;DHT22;42744;51.094;3.490;2023-02-15T01:40:57;0.30;99.90
56861;DHT22;42744;51.094;3.490;2023-02-15T01:43:46;0.40;99.90
56861;DHT22;42744;51.094;3.490;2023-02-15T01:46:14;0.40;99.90
56861;DHT22;42744;51.094;3.490;2023-02-15T01:48:46;0.40;99.90
56861;DHT22;42744;51.094;3.490;2023-02-15T01:51:17;0.40;99.90
56861;DHT22;42744;51.094;3.490;2023-02-15T01:54:24;0.30;99.90
56861;DHT22;42744;51.094;3.490;2023-02-15T01:56:42;0.30;99.90
56861;DHT22;42744;51.094;3.490;2023-02-15T01:59:13;0.30;99.90
56861;DHT22;42744;51.094;3.490;2023-02-15T02:01:41;0.30;99.90
56861;DHT22;42744;51.094;3.490;2023-02-15T02:04:20;0.30;99.90
56861;DHT22;42744;51.094;3.490;2023-02-15T02:06:50;0.30;99.90
56861;DHT22;42744;51.094;3.490;2023-02-15T02:09:16;0.30;99.90
56861;DHT22;42744;51.094;3.490;2023-02-15T02:11:44;0.30;99.90
56861;DHT22;42744;51.094;3.490;2023-02-15T02:14:12;0.30;99.90
56861;DHT22;42744;51.094;3.490;2023-02-15T02:28:30;0.20;99.90
56861;DHT22;42744;51.094;3.490;2023-02-15T02:36:52;-0.10;99.90
56861;DHT22;42744;51.094;3.490;2023-02-15T02:42:05;-0.10;99.90
56861;DHT22;42744;51.094;3.490;2023-02-15T02:50:16;-0.10;99.90
56861;DHT22;42744;51.094;3.490;2023-02-15T02:52:48;-0.10;99.90
56861;DHT22;42744;51.094;3.490;2023-02-15T02:55:34;0.00;99.90
56861;DHT22;42744;51.094;3.490;2023-02-15T02:58:26;0.00;99.90
56861;DHT22;42744;51.094;3.490;2023-02-15T03:01:02;0.00;99.90
56861;DHT22;42744;51.094;3.490;2023-02-15T03:03:45;0.00;99.90
56861;DHT22;42744;51.094;3.490;2023-02-15T03:06:18;0.00;99.90
56861;DHT22;42744;51.094;3.490;2023-02-15T03:08:51;0.00;99.90
56861;DHT22;42744;51.094;3.490;2023-02-15T03:11:19;0.00;99.90
56861;DHT22;42744;51.094;3.490;2023-02-15T03:13:47;0.00;99.90
56861;DHT22;42744;51.094;3.490;2023-02-15T03:16:16;0.00;99.90
56861;DHT22;42744;51.094;3.490;2023-02-15T03:19:17;0.00;99.90
56861;DHT22;42744;51.094;3.490;2023-02-15T03:21:50;-0.10;99.90
56861;DHT22;42744;51.094;3.490;2023-02-15T03:24:31;-0.10;99.90
56861;DHT22;42744;51.094;3.490;2023-02-15T03:26:59;-0.20;99.90
56861;DHT22;42744;51.094;3.490;2023-02-15T03:29:30;-0.30;99.90
56861;DHT22;42744;51.094;3.490;2023-02-15T03:32:02;-0.40;99.90
56861;DHT22;42744;51.094;3.490;2023-02-15T03:34:30;-0.40;99.90
56861;DHT22;42744;51.094;3.490;2023-02-15T03:37:19;-0.40;99.90
56861;DHT22;42744;51.094;3.490;2023-02-15T03:42:24;-0.40;99.90
56861;DHT22;42744;51.094;3.490;2023-02-15T03:47:30;-0.30;99.90
56861;DHT22;42744;51.094;3.490;2023-02-15T03:50:05;-0.30;99.90
56861;DHT22;42744;51.094;3.490;2023-02-15T03:52:54;-0.30;99.90
56861;DHT22;42744;51.094;3.490;2023-02-15T03:55:22;-0.30;99.90
56861;DHT22;42744;51.094;3.490;2023-02-15T03:57:48;-0.40;99.90
56861;DHT22;42744;51.094;3.490;2023-02-15T04:00:36;-0.40;99.90
56861;DHT22;42744;51.094;3.490;2023-02-15T04:03:44;-0.50;99.90
56861;DHT22;42744;51.094;3.490;2023-02-15T04:06:11;-0.50;99.90
56861;DHT22;42744;51.094;3.490;2023-02-15T04:08:38;-0.50;99.90
56861;DHT22;42744;51.094;3.490;2023-02-15T04:11:22;-0.50;99.90
56861;DHT22;42744;51.094;3.490;2023-02-15T04:13:50;-0.50;99.90
56861;DHT22;42744;51.094;3.490;2023-02-15T04:16:25;-0.50;99.90
56861;DHT22;42744;51.094;3.490;2023-02-15T04:18:53;-0.50;99.90
56861;DHT22;42744;51.094;3.490;2023-02-15T04:21:38;-0.50;99.90
56861;DHT22;42744;51.094;3.490;2023-02-15T04:24:23;-0.50;99.90
56861;DHT22;42744;51.094;3.490;2023-02-15T04:27:07;-0.50;99.90
56861;DHT22;42744;51.094;3.490;2023-02-15T04:29:34;-0.50;99.90
56861;DHT22;42744;51.094;3.490;2023-02-15T04:32:01;-0.60;99.90
56861;DHT22;42744;51.094;3.490;2023-02-15T04:34:28;-0.60;99.90
56861;DHT22;42744;51.094;3.490;2023-02-15T04:36:54;-0.60;99.90
56861;DHT22;42744;51.094;3.490;2023-02-15T04:39:20;-0.60;99.90
56861;DHT22;42744;51.094;3.490;2023-02-15T04:41:46;-0.60;99.90
56861;DHT22;42744;51.094;3.490;2023-02-15T04:44:13;-0.60;99.90
56861;DHT22;42744;51.094;3.490;2023-02-15T04:46:39;-0.70;99.90
56861;DHT22;42744;51.094;3.490;2023-02-15T04:49:05;-0.70;99.90
56861;DHT22;42744;51.094;3.490;2023-02-15T04:51:31;-0.60;99.90
56861;DHT22;42744;51.094;3.490;2023-02-15T04:53:57;-0.60;99.90
56861;DHT22;42744;51.094;3.490;2023-02-15T04:56:23;-0.70;99.90
56861;DHT22;42744;51.094;3.490;2023-02-15T04:58:49;-0.70;99.90
56861;DHT22;42744;51.094;3.490;2023-02-15T05:01:16;-0.70;99.90
56861;DHT22;42744;51.094;3.490;2023-02-15T05:03:42;-0.70;99.90
56861;DHT22;42744;51.094;3.490;2023-02-15T05:06:08;-0.70;99.90
56861;DHT22;42744;51.094;3.490;2023-02-15T05:08:34;-0.80;99.90
56861;DHT22;42744;51.094;3.490;2023-02-15T05:11:00;-0.80;99.90
56861;DHT22;42744;51.094;3.490;2023-02-15T05:13:26;-0.80;99.90
56861;DHT22;42744;51.094;3.490;2023-02-15T05:15:53;-0.80;99.90
56861;DHT22;42744;51.094;3.490;2023-02-15T05:18:22;-0.80;99.90
56861;DHT22;42744;51.094;3.490;2023-02-15T05:20:48;-0.90;99.90
56861;DHT22;42744;51.094;3.490;2023-02-15T05:23:15;-0.90;99.90
56861;DHT22;42744;51.094;3.490;2023-02-15T05:25:41;-0.90;99.90
56861;DHT22;42744;51.094;3.490;2023-02-15T05:28:30;-0.90;99.90
56861;DHT22;42744;51.094;3.490;2023-02-15T05:31:05;-0.90;99.90
56861;DHT22;42744;51.094;3.490;2023-02-15T05:33:32;-0.90;99.90
56861;DHT22;42744;51.094;3.490;2023-02-15T05:35:58;-0.90;99.90
56861;DHT22;42744;51.094;3.490;2023-02-15T05:38:24;-0.90;99.90
56861;DHT22;42744;51.094;3.490;2023-02-15T05:40:51;-0.90;99.90
56861;DHT22;42744;51.094;3.490;2023-02-15T05:43:17;-0.90;99.90
56861;DHT22;42744;51.094;3.490;2023-02-15T05:45:48;-0.90;99.90
56861;DHT22;42744;51.094;3.490;2023-02-15T05:48:15;-1.00;99.90
56861;DHT22;42744;51.094;3.490;2023-02-15T05:50:41;-1.00;99.90
56861;DHT22;42744;51.094;3.490;2023-02-15T05:53:07;-1.00;99.90
56861;DHT22;42744;51.094;3.490;2023-02-15T05:55:34;-1.00;99.90
56861;DHT22;42744;51.094;3.490;2023-02-15T05:58:00;-1.00;99.90
56861;DHT22;42744;51.094;3.490;2023-02-15T06:00:26;-1.00;99.90
56861;DHT22;42744;51.094;3.490;2023-02-15T06:02:52;-1.00;99.90
56861;DHT22;42744;51.094;3.490;2023-02-15T06:05:18;-1.10;99.90
56861;DHT22;42744;51.094;3.490;2023-02-15T06:07:44;-1.10;99.90
56861;DHT22;42744;51.094;3.490;2023-02-15T06:10:12;-1.10;99.90
56861;DHT22;42744;51.094;3.490;2023-02-15T06:12:38;-1.10;99.90
56861;DHT22;42744;51.094;3.490;2023-02-15T06:15:04;-1.10;99.90
56861;DHT22;42744;51.094;3.490;2023-02-15T06:17:30;-1.10;99.90
56861;DHT22;42744;51.094;3.490;2023-02-15T06:19:56;-1.10;99.90
56861;DHT22;42744;51.094;3.490;2023-02-15T06:22:22;-1.10;99.90
56861;DHT22;42744;51.094;3.490;2023-02-15T06:24:48;-1.10;99.90
56861;DHT22;42744;51.094;3.490;2023-02-15T06:27:14;-1.10;99.90
56861;DHT22;42744;51.094;3.490;2023-02-15T06:29:40;-1.10;99.90
56861;DHT22;42744;51.094;3.490;2023-02-15T06:32:06;-1.10;99.90
56861;DHT22;42744;51.094;3.490;2023-02-15T06:34:33;-1.10;99.90
56861;DHT22;42744;51.094;3.490;2023-02-15T06:36:59;-1.10;99.90
56861;DHT22;42744;51.094;3.490;2023-02-15T06:39:25;-1.10;99.90
56861;DHT22;42744;51.094;3.490;2023-02-15T06:41:51;-1.10;99.90
56861;DHT22;42744;51.094;3.490;2023-02-15T06:44:17;-1.10;99.90
56861;DHT22;42744;51.094;3.490;2023-02-15T06:46:43;-1.10;99.90
56861;DHT22;42744;51.094;3.490;2023-02-15T06:49:10;-1.10;99.90
56861;DHT22;42744;51.094;3.490;2023-02-15T06:51:36;-1.20;99.90
56861;DHT22;42744;51.094;3.490;2023-02-15T06:54:02;-1.20;99.90
56861;DHT22;42744;51.094;3.490;2023-02-15T06:56:28;-1.10;99.90
56861;DHT22;42744;51.094;3.490;2023-02-15T06:58:55;-1.10;99.90
56861;DHT22;42744;51.094;3.490;2023-02-15T07:01:21;-1.10;99.90
56861;DHT22;42744;51.094;3.490;2023-02-15T07:03:47;-1.10;99.90
56861;DHT22;42744;51.094;3.490;2023-02-15T07:06:13;-1.10;99.90
56861;DHT22;42744;51.094;3.490;2023-02-15T07:08:39;-1.10;99.90
56861;DHT22;42744;51.094;3.490;2023-02-15T07:11:06;-1.10;99.90
56861;DHT22;42744;51.094;3.490;2023-02-15T07:13:51;-1.10;99.90
56861;DHT22;42744;51.094;3.490;2023-02-15T07:16:18;-1.00;99.90
56861;DHT22;42744;51.094;3.490;2023-02-15T07:18:45;-1.00;99.90
56861;DHT22;42744;51.094;3.490;2023-02-15T07:21:11;-0.90;99.90
56861;DHT22;42744;51.094;3.490;2023-02-15T07:23:38;-0.90;99.90
56861;DHT22;42744;51.094;3.490;2023-02-15T07:26:06;-0.90;99.90
56861;DHT22;42744;51.094;3.490;2023-02-15T07:28:33;-0.90;99.90
56861;DHT22;42744;51.094;3.490;2023-02-15T07:31:04;-0.80;99.90
56861;DHT22;42744;51.094;3.490;2023-02-15T07:33:34;-0.80;99.90
56861;DHT22;42744;51.094;3.490;2023-02-15T07:36:02;-0.80;99.90
56861;DHT22;42744;51.094;3.490;2023-02-15T07:38:34;-0.80;99.90
56861;DHT22;42744;51.094;3.490;2023-02-15T07:41:02;-0.70;99.90
56861;DHT22;42744;51.094;3.490;2023-02-15T07:43:29;-0.70;99.90
56861;DHT22;42744;51.094;3.490;2023-02-15T07:45:59;-0.60;99.90
56861;DHT22;42744;51.094;3.490;2023-02-15T07:48:26;-0.60;99.90
56861;DHT22;42744;51.094;3.490;2023-02-15T07:50:52;-0.50;99.90
56861;DHT22;42744;51.094;3.490;2023-02-15T07:53:18;-0.50;99.90
56861;DHT22;42744;51.094;3.490;2023-02-15T07:55:44;-0.50;99.90
56861;DHT22;42744;51.094;3.490;2023-02-15T07:58:10;-0.40;99.90
56861;DHT22;42744;51.094;3.490;2023-02-15T08:00:36;-0.40;99.90
56861;DHT22;42744;51.094;3.490;2023-02-15T08:03:25;-0.30;99.90
56861;DHT22;42744;51.094;3.490;2023-02-15T08:05:59;-0.20;99.90
56861;DHT22;42744;51.094;3.490;2023-02-15T08:08:26;-0.20;99.90
56861;DHT22;42744;51.094;3.490;2023-02-15T08:13:54;0.10;99.90
56861;DHT22;42744;51.094;3.490;2023-02-15T08:18:52;0.50;99.90
56861;DHT22;42744;51.094;3.490;2023-02-15T08:21:19;0.60;99.90
56861;DHT22;42744;51.094;3.490;2023-02-15T08:23:45;0.70;99.90
56861;DHT22;42744;51.094;3.490;2023-02-15T08:26:12;0.80;99.90
56861;DHT22;42744;51.094;3.490;2023-02-15T08:28:38;1.00;99.90
56861;DHT22;42744;51.094;3.490;2023-02-15T08:31:06;1.30;99.90
56861;DHT22;42744;51.094;3.490;2023-02-15T08:33:33;1.40;99.90
56861;DHT22;42744;51.094;3.490;2023-02-15T08:36:06;1.60;99.90
56861;DHT22;42744;51.094;3.490;2023-02-15T08:38:34;1.80;99.90
56861;DHT22;42744;51.094;3.490;2023-02-15T08:41:11;2.00;99.90
56861;DHT22;42744;51.094;3.490;2023-02-15T08:43:38;2.20;99.90
56861;DHT22;42744;51.094;3.490;2023-02-15T08:46:08;2.40;99.90
56861;DHT22;42744;51.094;3.490;2023-02-15T08:48:34;2.50;99.90
56861;DHT22;42744;51.094;3.490;2023-02-15T08:51:14;2.80;99.90
56861;DHT22;42744;51.094;3.490;2023-02-15T08:53:44;2.90;99.90
56861;DHT22;42744;51.094;3.490;2023-02-15T08:56:11;3.10;99.90
56861;DHT22;42744;51.094;3.490;2023-02-15T08:58:38;3.20;99.90
56861;DHT22;42744;51.094;3.490;2023-02-15T09:01:12;3.40;99.90
56861;DHT22;42744;51.094;3.490;2023-02-15T09:03:39;3.60;99.90
56861;DHT22;42744;51.094;3.490;2023-02-15T09:06:06;3.80;99.90
56861;DHT22;42744;51.094;3.490;2023-02-15T09:08:32;3.90;99.90
56861;DHT22;42744;51.094;3.490;2023-02-15T09:11:16;4.10;99.90
56861;DHT22;42744;51.094;3.490;2023-02-15T09:13:53;4.20;99.90
56861;DHT22;42744;51.094;3.490;2023-02-15T09:16:20;4.40;99.90
56861;DHT22;42744;51.094;3.490;2023-02-15T09:18:47;4.50;99.90
56861;DHT22;42744;51.094;3.490;2023-02-15T09:21:15;4.70;99.90
56861;DHT22;42744;51.094;3.490;2023-02-15T09:23:43;4.90;99.90
56861;DHT22;42744;51.094;3.490;2023-02-15T09:26:15;5.00;99.90
56861;DHT22;42744;51.094;3.490;2023-02-15T09:28:41;5.20;99.90
56861;DHT22;42744;51.094;3.490;2023-02-15T09:31:16;5.40;99.90
56861;DHT22;42744;51.094;3.490;2023-02-15T09:33:43;5.60;99.90
56861;DHT22;42744;51.094;3.490;2023-02-15T09:36:30;5.80;99.90
56861;DHT22;42744;51.094;3.490;2023-02-15T09:42:01;6.10;99.90
56861;DHT22;42744;51.094;3.490;2023-02-15T09:56:41;7.30;99.90
56861;DHT22;42744;51.094;3.490;2023-02-15T10:01:39;7.50;99.90
56861;DHT22;42744;51.094;3.490;2023-02-15T10:04:26;7.70;99.90
56861;DHT22;42744;51.094;3.490;2023-02-15T10:10:13;8.10;99.90
56861;DHT22;42744;51.094;3.490;2023-02-15T10:20:56;8.50;99.90
56861;DHT22;42744;51.094;3.490;2023-02-15T10:26:26;8.80;99.90
56861;DHT22;42744;51.094;3.490;2023-02-15T10:29:08;9.10;99.90
56861;DHT22;42744;51.094;3.490;2023-02-15T10:31:47;9.30;99.90
56861;DHT22;42744;51.094;3.490;2023-02-15T10:34:28;9.50;99.90
56861;DHT22;42744;51.094;3.490;2023-02-15T10:47:54;10.40;99.90
56861;DHT22;42744;51.094;3.490;2023-02-15T10:50:43;10.70;99.90
56861;DHT22;42744;51.094;3.490;2023-02-15T10:58:52;11.30;99.90
56861;DHT22;42744;51.094;3.490;2023-02-15T11:04:22;11.70;99.90
56861;DHT22;42744;51.094;3.490;2023-02-15T11:07:00;12.00;99.90
56861;DHT22;42744;51.094;3.490;2023-02-15T11:09:42;12.10;99.90
56861;DHT22;42744;51.094;3.490;2023-02-15T11:12:13;12.10;99.90
56861;DHT22;42744;51.094;3.490;2023-02-15T11:17:33;12.10;99.90
56861;DHT22;42744;51.094;3.490;2023-02-15T11:20:30;12.20;99.90
56861;DHT22;42744;51.094;3.490;2023-02-15T11:22:58;12.20;99.90
56861;DHT22;42744;51.094;3.490;2023-02-15T11:27:55;12.30;99.90
56861;DHT22;42744;51.094;3.490;2023-02-15T11:30:24;12.50;99.90
56861;DHT22;42744;51.094;3.490;2023-02-15T11:32:55;12.70;99.90
56861;DHT22;42744;51.094;3.490;2023-02-15T11:35:32;13.10;99.90
56861;DHT22;42744;51.094;3.490;2023-02-15T11:38:07;13.20;99.90
56861;DHT22;42744;51.094;3.490;2023-02-15T11:46:00;13.70;99.90
56861;DHT22;42744;51.094;3.490;2023-02-15T11:48:29;13.70;99.90
56861;DHT22;42744;51.094;3.490;2023-02-15T11:50:56;13.50;99.90
56861;DHT22;42744;51.094;3.490;2023-02-15T11:53:23;13.40;99.90
56861;DHT22;42744;51.094;3.490;2023-02-15T11:55:54;13.30;99.90
56861;DHT22;42744;51.094;3.490;2023-02-15T11:58:37;13.20;99.90
56861;DHT22;42744;51.094;3.490;2023-02-15T12:01:16;13.00;99.90
56861;DHT22;42744;51.094;3.490;2023-02-15T12:03:51;12.80;99.90
56861;DHT22;42744;51.094;3.490;2023-02-15T12:06:27;12.80;99.90
56861;DHT22;42744;51.094;3.490;2023-02-15T12:11:32;12.60;99.90
56861;DHT22;42744;51.094;3.490;2023-02-15T12:14:02;12.60;99.90
56861;DHT22;42744;51.094;3.490;2023-02-15T12:16:50;12.60;99.90
56861;DHT22;42744;51.094;3.490;2023-02-15T12:19:30;12.70;99.90
56861;DHT22;42744;51.094;3.490;2023-02-15T12:21:57;12.80;99.90
56861;DHT22;42744;51.094;3.490;2023-02-15T12:27:20;12.80;99.90
56861;DHT22;42744;51.094;3.490;2023-02-15T12:29:57;12.90;99.90
56861;DHT22;42744;51.094;3.490;2023-02-15T12:32:26;13.10;99.90
56861;DHT22;42744;51.094;3.490;2023-02-15T12:35:01;13.20;99.90
56861;DHT22;42744;51.094;3.490;2023-02-15T12:37:31;13.20;99.90
56861;DHT22;42744;51.094;3.490;2023-02-15T12:40:10;13.10;99.90
56861;DHT22;42744;51.094;3.490;2023-02-15T12:42:44;13.00;99.90
56861;DHT22;42744;51.094;3.490;2023-02-15T12:45:35;13.00;99.90
56861;DHT22;42744;51.094;3.490;2023-02-15T12:48:19;13.00;99.90
56861;DHT22;42744;51.094;3.490;2023-02-15T12:50:47;13.20;99.90
56861;DHT22;42744;51.094;3.490;2023-02-15T12:53:30;13.30;99.90
56861;DHT22;42744;51.094;3.490;2023-02-15T12:56:01;13.60;99.90
56861;DHT22;42744;51.094;3.490;2023-02-15T12:58:39;13.90;99.90
56861;DHT22;42744;51.094;3.490;2023-02-15T13:03:36;14.50;99.90
56861;DHT22;42744;51.094;3.490;2023-02-15T13:06:03;14.60;99.90
56861;DHT22;42744;51.094;3.490;2023-02-15T13:08:46;14.70;99.90
56861;DHT22;42744;51.094;3.490;2023-02-15T13:11:21;14.80;99.90
56861;DHT22;42744;51.094;3.490;2023-02-15T13:13:55;14.80;99.90
56861;DHT22;42744;51.094;3.490;2023-02-15T13:16:37;14.80;99.90
56861;DHT22;42744;51.094;3.490;2023-02-15T13:19:16;14.80;99.90
56861;DHT22;42744;51.094;3.490;2023-02-15T13:21:53;14.80;99.90
56861;DHT22;42744;51.094;3.490;2023-02-15T13:24:27;14.80;99.90
56861;DHT22;42744;51.094;3.490;2023-02-15T13:26:56;14.70;99.90
56861;DHT22;42744;51.094;3.490;2023-02-15T13:29:44;14.70;99.90
56861;DHT22;42744;51.094;3.490;2023-02-15T13:32:24;14.70;99.90
56861;DHT22;42744;51.094;3.490;2023-02-15T13:34:57;14.80;99.90
56861;DHT22;42744;51.094;3.490;2023-02-15T13:45:44;14.80;99.90
56861;DHT22;42744;51.094;3.490;2023-02-15T13:48:20;14.70;99.90
56861;DHT22;42744;51.094;3.490;2023-02-15T13:51:34;14.80;99.90
56861;DHT22;42744;51.094;3.490;2023-02-15T14:11:04;14.80;99.90
56861;DHT22;42744;51.094;3.490;2023-02-15T14:16:54;14.70;99.90
56861;DHT22;42744;51.094;3.490;2023-02-15T14:22:02;14.40;99.90
56861;DHT22;42744;51.094;3.490;2023-02-15T14:24:43;14.30;99.90
56861;DHT22;42744;51.094;3.490;2023-02-15T14:27:27;14.20;99.90
56861;DHT22;42744;51.094;3.490;2023-02-15T14:30:03;14.20;99.90
56861;DHT22;42744;51.094;3.490;2023-02-15T14:32:38;14.10;99.90
56861;DHT22;42744;51.094;3.490;2023-02-15T14:35:13;14.00;99.90
56861;DHT22;42744;51.094;3.490;2023-02-15T14:49:26;13.20;99.90
56861;DHT22;42744;51.094;3.490;2023-02-15T14:52:11;13.00;99.90
56861;DHT22;42744;51.094;3.490;2023-02-15T14:59:50;12.70;99.90
56861;DHT22;42744;51.094;3.490;2023-02-15T15:02:25;12.60;99.90
56861;DHT22;42744;51.094;3.490;2023-02-15T15:05:02;12.50;99.90
56861;DHT22;42744;51.094;3.490;2023-02-15T15:07:44;12.40;99.90
56861;DHT22;42744;51.094;3.490;2023-02-15T15:12:45;12.20;99.90
56861;DHT22;42744;51.094;3.490;2023-02-15T15:15:15;12.20;99.90
56861;DHT22;42744;51.094;3.490;2023-02-15T15:20:50;12.00;99.90
56861;DHT22;42744;51.094;3.490;2023-02-15T15:25:49;11.90;99.90
56861;DHT22;42744;51.094;3.490;2023-02-15T15:34:42;11.80;99.90
56861;DHT22;42744;51.094;3.490;2023-02-15T15:40:17;11.70;99.90
56861;DHT22;42744;51.094;3.490;2023-02-15T15:42:57;11.60;99.90
56861;DHT22;42744;51.094;3.490;2023-02-15T15:45:46;11.60;99.90
56861;DHT22;42744;51.094;3.490;2023-02-15T15:48:35;11.60;99.90
56861;DHT22;42744;51.094;3.490;2023-02-15T15:53:52;11.40;99.90
56861;DHT22;42744;51.094;3.490;2023-02-15T15:56:23;11.30;99.90
56861;DHT22;42744;51.094;3.490;2023-02-15T15:58:54;11.30;99.90
56861;DHT22;42744;51.094;3.490;2023-02-15T16:01:42;11.20;99.90
56861;DHT22;42744;51.094;3.490;2023-02-15T16:04:13;11.10;99.90
56861;DHT22;42744;51.094;3.490;2023-02-15T16:06:40;11.00;99.90
56861;DHT22;42744;51.094;3.490;2023-02-15T16:09:32;11.00;99.90
56861;DHT22;42744;51.094;3.490;2023-02-15T16:11:59;10.90;99.90
56861;DHT22;42744;51.094;3.490;2023-02-15T16:14:31;10.90;99.90
56861;DHT22;42744;51.094;3.490;2023-02-15T16:17:00;10.90;99.90
56861;DHT22;42744;51.094;3.490;2023-02-15T16:19:32;10.80;99.90
56861;DHT22;42744;51.094;3.490;2023-02-15T16:22:00;10.80;99.90
56861;DHT22;42744;51.094;3.490;2023-02-15T16:29:53;10.70;99.90
56861;DHT22;42744;51.094;3.490;2023-02-15T16:32:22;10.70;99.90
56861;DHT22;42744;51.094;3.490;2023-02-15T16:35:02;10.70;99.90
56861;DHT22;42744;51.094;3.490;2023-02-15T16:37:35;10.60;99.90
56861;DHT22;42744;51.094;3.490;2023-02-15T16:40:02;10.60;99.90
56861;DHT22;42744;51.094;3.490;2023-02-15T16:42:28;10.60;99.90
56861;DHT22;42744;51.094;3.490;2023-02-15T16:45:01;10.50;99.90
56861;DHT22;42744;51.094;3.490;2023-02-15T16:47:30;10.50;99.90
56861;DHT22;42744;51.094;3.490;2023-02-15T16:50:00;10.50;99.90
56861;DHT22;42744;51.094;3.490;2023-02-15T16:52:28;10.40;99.90
56861;DHT22;42744;51.094;3.490;2023-02-15T16:54:58;10.30;99.90
56861;DHT22;42744;51.094;3.490;2023-02-15T16:57:28;10.30;99.90
56861;DHT22;42744;51.094;3.490;2023-02-15T16:59:59;10.20;99.90
56861;DHT22;42744;51.094;3.490;2023-02-15T17:02:29;10.10;99.90
56861;DHT22;42744;51.094;3.490;2023-02-15T17:05:16;10.10;99.90
56861;DHT22;42744;51.094;3.490;2023-02-15T17:08:24;9.90;99.90
56861;DHT22;42744;51.094;3.490;2023-02-15T17:11:10;9.90;99.90
56861;DHT22;42744;51.094;3.490;2023-02-15T17:13:38;9.80;99.90
56861;DHT22;42744;51.094;3.490;2023-02-15T17:18:44;9.70;99.90
56861;DHT22;42744;51.094;3.490;2023-02-15T17:21:19;9.60;99.90
56861;DHT22;42744;51.094;3.490;2023-02-15T17:23:50;9.60;99.90
56861;DHT22;42744;51.094;3.490;2023-02-15T17:26:32;9.50;99.90
56861;DHT22;42744;51.094;3.490;2023-02-15T17:29:02;9.50;99.90
56861;DHT22;42744;51.094;3.490;2023-02-15T17:31:36;9.40;99.90
56861;DHT22;42744;51.094;3.490;2023-02-15T17:34:02;9.40;99.90
56861;DHT22;42744;51.094;3.490;2023-02-15T17:36:30;9.30;99.90
56861;DHT22;42744;51.094;3.490;2023-02-15T17:41:27;9.20;99.90
56861;DHT22;42744;51.094;3.490;2023-02-15T17:43:54;9.10;99.90
56861;DHT22;42744;51.094;3.490;2023-02-15T17:46:21;9.10;99.90
56861;DHT22;42744;51.094;3.490;2023-02-15T17:48:52;9.10;99.90
56861;DHT22;42744;51.094;3.490;2023-02-15T17:51:20;9.00;99.90
56861;DHT22;42744;51.094;3.490;2023-02-15T17:53:47;9.00;99.90
56861;DHT22;42744;51.094;3.490;2023-02-15T17:56:33;9.00;99.90
56861;DHT22;42744;51.094;3.490;2023-02-15T17:58:59;9.00;99.90
56861;DHT22;42744;51.094;3.490;2023-02-15T18:01:25;8.90;99.90
56861;DHT22;42744;51.094;3.490;2023-02-15T18:04:12;8.80;99.90
56861;DHT22;42744;51.094;3.490;2023-02-15T18:06:58;8.80;99.90
56861;DHT22;42744;51.094;3.490;2023-02-15T18:09:43;8.70;99.90
56861;DHT22;42744;51.094;3.490;2023-02-15T18:12:29;8.70;99.90
56861;DHT22;42744;51.094;3.490;2023-02-15T18:14:57;8.60;99.90
56861;DHT22;42744;51.094;3.490;2023-02-15T18:19:54;8.50;99.90
56861;DHT22;42744;51.094;3.490;2023-02-15T18:22:21;8.50;99.90
56861;DHT22;42744;51.094;3.490;2023-02-15T18:24:48;8.40;99.90
56861;DHT22;42744;51.094;3.490;2023-02-15T18:27:14;8.40;99.90
56861;DHT22;42744;51.094;3.490;2023-02-15T18:29:41;8.40;99.90
56861;DHT22;42744;51.094;3.490;2023-02-15T18:32:13;8.40;99.90
56861;DHT22;42744;51.094;3.490;2023-02-15T18:34:42;8.30;99.90
56861;DHT22;42744;51.094;3.490;2023-02-15T18:37:18;8.30;99.90
56861;DHT22;42744;51.094;3.490;2023-02-15T18:39:47;8.30;99.90
56861;DHT22;42744;51.094;3.490;2023-02-15T18:42:43;8.20;99.90
56861;DHT22;42744;51.094;3.490;2023-02-15T18:45:19;8.20;99.90
56861;DHT22;42744;51.094;3.490;2023-02-15T18:47:47;8.10;99.90
56861;DHT22;42744;51.094;3.490;2023-02-15T18:50:15;8.10;99.90
56861;DHT22;42744;51.094;3.490;2023-02-15T18:52:43;8.00;99.90
56861;DHT22;42744;51.094;3.490;2023-02-15T18:57:42;8.10;99.90
56861;DHT22;42744;51.094;3.490;2023-02-15T19:02:43;8.10;99.90
56861;DHT22;42744;51.094;3.490;2023-02-15T19:05:09;8.00;99.90
56861;DHT22;42744;51.094;3.490;2023-02-15T19:07:35;8.00;99.90
56861;DHT22;42744;51.094;3.490;2023-02-15T19:10:04;7.90;99.90
56861;DHT22;42744;51.094;3.490;2023-02-15T19:12:31;7.90;99.90
56861;DHT22;42744;51.094;3.490;2023-02-15T19:14:57;7.90;99.90
56861;DHT22;42744;51.094;3.490;2023-02-15T19:17:23;7.90;99.90